Rechercher aéroport 
image banner adimage banner adimage banner ad
image banner ad

28CA - Dos Palos

Situé à Dos Palos, United States

ICAO - 28CA, IATA -

Données fournies par Airmate  

Information générale

Coordonnées: N36°57'45" W120°37'49"
Élévation : 118 feet MSL.
Variation magnétique : 15° East
Voir autres Aéroports à California

Données opérationnelles

Special qualification required
Heure actuelle UTC:
Heure actuelle locale:
Météo à : KMCE - Merced Rgnl/Macready Field ( 37 km )
METAR: KMCE 300053Z AUTO 32008KT 10SM CLR 39/16 A2978 RMK AO2 SLP082 T03890161
TAF: KMCE 292320Z 3000/3024 32008KT P6SM FEW120 SCT250
Voir NOTAMs / SUP AIP / TFR affectant cet aéroport [VIEW]
Fréquences de communication: [VIEW]

Pistes:

Identifiant RWYQFULongueur (ft)Largeur (ft)SurfaceLDA (ft)
13221060EARTH
31221060EARTH

Coordonnées de l'aéroport

Adresse: Dos Palos United States

Vue satellite de 28CA